WetterOnline ( https://www.wetteronline.at )

Wetter aktuell Greifswalder Bodden

Aktuelles Wetter: Greifswalder Oie (12m)

6-stündlich | Neueste Meldungen
Ortszeit Temperatur Wetter
So, 15.12. 13:00 6.2° C wolkenlos
So, 15.12. 7:00 3.2° C wolkig
So, 15.12. 1:00 5.1° C bewölkt
Sa, 14.12. 19:00 4.6° C bewölkt
Sa, 14.12. 13:00 3.9° C bewölkt
Sa, 14.12. 7:00 1.9° C leichter Regen
Sa, 14.12. 1:00 2.9° C bedeckt
Fr, 13.12. 19:00 3.5° C bewölkt
Ortszeit Temperatur Wetter
So, 15.12. 13:30 6.9° C wolkenlos
So, 15.12. 13:20 6.9° C wolkenlos
So, 15.12. 13:10 6.6° C wolkenlos
So, 15.12. 13:00 6.2° C wolkenlos
So, 15.12. 12:50 6.2° C wolkenlos
So, 15.12. 12:40 5.9° C leicht bewölkt
So, 15.12. 12:30 5.6° C bedeckt
So, 15.12. 12:00 4.5° C bewölkt
So, 15.12. 11:30 4.2° C bedeckt
So, 15.12. 11:00 4.1° C leichter Regen
So, 15.12. 10:30 4.4° C bewölkt
So, 15.12. 10:00 4.2° C bewölkt
Ortszeit Relative Feuchte Sichtweite
So, 15.12. 13:00 86% 50 km
So, 15.12. 7:00 85% 35 km
So, 15.12. 1:00 83% 29 km
Sa, 14.12. 19:00 88% 40 km
Sa, 14.12. 13:00 91% 17 km
Sa, 14.12. 7:00 93% 5.0 km
Sa, 14.12. 1:00 82% 11 km
Fr, 13.12. 19:00 79% 10 km
Ortszeit Relative Feuchte Sichtweite
So, 15.12. 13:30 84% 35 km
So, 15.12. 13:20 84% -
So, 15.12. 13:10 86% -
So, 15.12. 13:00 86% 50 km
So, 15.12. 12:50 86% -
So, 15.12. 12:40 88% -
So, 15.12. 12:30 89% 35 km
So, 15.12. 12:00 91% 26 km
So, 15.12. 11:30 91% 19 km
So, 15.12. 11:00 87% 9 km
So, 15.12. 10:30 80% 25 km
So, 15.12. 10:00 81% 27 km
Ortszeit Niederschlagsmenge Niederschlagsart
So, 15.12. 13:00 0.9 l/m2 in 6 Std. Regen
So, 15.12. 7:00 0.0 l/m2 in 12 Std. -
So, 15.12. 1:00 0.0 l/m2 in 6 Std. -
Sa, 14.12. 19:00 3 l/m2 in 12 Std. Regen
Sa, 14.12. 13:00 0.5 l/m2 in 6 Std. Schnee, Regen
Sa, 14.12. 7:00 0.1 l/m2 in 12 Std. Regen
Sa, 14.12. 1:00 0.0 l/m2 in 6 Std. -
Fr, 13.12. 19:00 0.0 l/m2 in 12 Std. -
Ortszeit Niederschlagsmenge Niederschlagsart
So, 15.12. 13:30 0.0 l/m2 in 1 Std. -
So, 15.12. 13:20 keine Meldung -
So, 15.12. 13:10 keine Meldung -
So, 15.12. 13:00 0.1 l/m2 in 1 Std. Regen
So, 15.12. 12:50 keine Meldung -
So, 15.12. 12:40 keine Meldung -
So, 15.12. 12:30 0.1 l/m2 in 1 Std. Schnee
So, 15.12. 12:00 0.2 l/m2 in 1 Std. Regen
So, 15.12. 11:30 0.2 l/m2 in 1 Std. Schneeregen
So, 15.12. 11:00 0.7 l/m2 in 1 Std. Regen
So, 15.12. 10:30 0.0 l/m2 in 1 Std. -
So, 15.12. 10:00 0.0 l/m2 in 1 Std. -
Ortszeit Stärke Spitze Richtung
km/h Bft. km/h Grad Sektor
So, 15.12. 13:00 44 6 63 210° SW
So, 15.12. 7:00 33 5 61 200° S
So, 15.12. 1:00 44 6 57 240° SW
Sa, 14.12. 19:00 43 6 52 230° SW
Sa, 14.12. 13:00 32 5 47 200° S
Sa, 14.12. 7:00 19 3 31 190° S
Sa, 14.12. 1:00 13 3 33 160° S
Fr, 13.12. 19:00 18 3 43 160° S
Ortszeit Stärke Spitze Richtung
km/h Bft. km/h Grad Sektor
So, 15.12. 13:30 43 6 54 220° SW
So, 15.12. 13:20 43 6 - 220° SW
So, 15.12. 13:10 43 6 - 210° SW
So, 15.12. 13:00 44 6 63 210° SW
So, 15.12. 12:50 44 6 - 210° SW
So, 15.12. 12:40 44 6 - 200° S
So, 15.12. 12:30 43 6 61 200° S
So, 15.12. 12:00 44 6 59 200° S
So, 15.12. 11:30 32 5 50 180° S
So, 15.12. 11:00 30 5 46 180° S
So, 15.12. 10:30 28 4 43 170° S
So, 15.12. 10:00 29 5 47 170° S
Ortszeit Untergrenze Bedeckung Gattung
total tief tief mittel hoch
So, 15.12. 13:00 780 m 0/8 0/8 - - -
So, 15.12. 7:00 5700 m 5/8 5/8 - - -
So, 15.12. 1:00 720 m 8/8 7/8 - - -
Sa, 14.12. 19:00 1140 m 8/8 7/8 - - -
Sa, 14.12. 13:00 690 m 7/8 7/8 - - -
Sa, 14.12. 7:00 180 m 8/8 8/8 - - -
Sa, 14.12. 1:00 660 m 8/8 8/8 - - -
Fr, 13.12. 19:00 480 m 7/8 8/8 - - -
Ortszeit Bedeckungsgrad in Achtel und Wolkenuntergrenze
So, 15.12. 13:30 keine Wolken
So, 15.12. 13:20 keine Wolken
So, 15.12. 13:10 keine Wolken
So, 15.12. 13:00 1(780m)
So, 15.12. 12:50 keine Wolken
So, 15.12. 12:40 1(630m) 2(780m) 2(1800m)
So, 15.12. 12:30 2(450m) 7(1500m) 8(2400m)
So, 15.12. 12:00 3(480m) 7(1500m) 7(2100m)
So, 15.12. 11:30 4(780m) 8(1440m) 8(3000m)
So, 15.12. 11:00 1(570m) 6(870m) 8(1140m)
So, 15.12. 10:30 3(1170m) 5(1350m) 7(1800m)
So, 15.12. 10:00 3(1800m) 8(2700m) 7(2700m)
Ortszeit Luftdruck NN (hPa) Tendenz (hPa in 3 Std.)
So, 15.12. 13:00 992 - 1,2
So, 15.12. 7:00 996 + 0,5
So, 15.12. 1:00 993 + 2,8
Sa, 14.12. 19:00 988 + 1,7
Sa, 14.12. 13:00 984 + 0,5
Sa, 14.12. 7:00 983 - 0,3
Sa, 14.12. 1:00 984 - 0,8
Fr, 13.12. 19:00 985 - 0,1
Ortszeit Luftdruck NN (hPa) Tendenz (hPa in 3 Std.)
So, 15.12. 13:30 993 - 0,6
So, 15.12. 13:20 993 keine Meldung
So, 15.12. 13:10 993 keine Meldung
So, 15.12. 13:00 992 - 1,2
So, 15.12. 12:50 992 keine Meldung
So, 15.12. 12:40 992 keine Meldung
So, 15.12. 12:30 992 - 2,0
So, 15.12. 12:00 992 - 2,4
So, 15.12. 11:30 992 - 2,8
So, 15.12. 11:00 993 - 2,3
So, 15.12. 10:30 993 - 2,4
So, 15.12. 10:00 994 - 2,3
Ortszeit Schneehöhe (cm)
So, 15.12. 13:00 0
So, 15.12. 7:00 0
So, 15.12. 1:00 0
Sa, 14.12. 19:00 0
Sa, 14.12. 13:00 0
Sa, 14.12. 7:00 0
Sa, 14.12. 1:00 0
Fr, 13.12. 19:00 0
Ortszeit Schneehöhe (cm)
So, 15.12. 13:30 0
So, 15.12. 13:20 0
So, 15.12. 13:10 0
So, 15.12. 13:00 0
So, 15.12. 12:50 0
So, 15.12. 12:40 0
So, 15.12. 12:30 0
So, 15.12. 12:00 0
So, 15.12. 11:30 0
So, 15.12. 11:00 0
So, 15.12. 10:30 0
So, 15.12. 10:00 0
Link zu dieser Seite / Seite empfehlen

Das Wetter in ...